Time;durP1;ratioP1;P1;durP2;ratioP2;P2;SDS_P1;SDS_P2;PMS_P1;PMS_P2;Temp;Humidity;BMP_temperature;BMP_pressure;BME280_temperature;BME280_humidity;BME280_pressure;Samples;Min_cycle;Max_cycle;Signal;HPM_P1;HPM_P2
2023/04/04 00:00:15;;;;;;;18.05;11.25;;;;;;;9.12;90.98;99371.22;5089704;28;20393;-42
2023/04/04 00:02:41;;;;;;;18.13;11.13;;;;;;;9.14;91.05;99371.19;5089531;28;20507;-43
2023/04/04 00:05:07;;;;;;;17.45;11.18;;;;;;;9.16;90.75;99359.81;5077348;28;20040;-41
2023/04/04 00:07:33;;;;;;;17.77;11.63;;;;;;;9.18;90.46;99371.00;5088639;28;20040;-42
2023/04/04 00:09:59;;;;;;;22.00;13.27;;;;;;;9.20;90.34;99365.78;5089428;28;20043;-42
2023/04/04 00:12:25;;;;;;;25.67;17.15;;;;;;;9.21;90.51;99364.91;5087821;28;20040;-42
2023/04/04 00:14:51;;;;;;;30.48;19.98;;;;;;;9.20;90.06;99365.78;5072575;28;20095;-42
2023/04/04 00:17:17;;;;;;;24.23;15.57;;;;;;;9.19;89.86;99364.94;5070527;28;20078;-41
2023/04/04 00:19:43;;;;;;;25.27;15.85;;;;;;;9.19;90.06;99369.28;5070689;28;20075;-41
2023/04/04 00:22:09;;;;;;;22.83;14.93;;;;;;;9.19;90.28;99362.34;5083054;28;20040;-43
2023/04/04 00:24:35;;;;;;;28.27;15.98;;;;;;;9.19;89.87;99359.75;5058947;28;20732;-42
2023/04/04 00:27:01;;;;;;;26.63;16.23;;;;;;;9.20;89.95;99364.03;5055317;28;20473;-41
2023/04/04 00:29:28;;;;;;;24.50;15.43;;;;;;;9.20;89.83;99358.00;5084143;28;20036;-41
2023/04/04 00:31:54;;;;;;;25.67;15.70;;;;;;;9.19;89.44;99357.16;5068477;28;20480;-41
2023/04/04 00:34:20;;;;;;;24.65;15.48;;;;;;;9.04;89.65;99336.06;5071173;28;20040;-42
2023/04/04 00:36:46;;;;;;;25.10;15.65;;;;;;;9.19;89.46;99361.50;5087204;28;20063;-42
2023/04/04 00:39:12;;;;;;;27.52;15.82;;;;;;;9.17;89.29;99364.13;5089336;28;20127;-43
2023/04/04 00:41:38;;;;;;;24.85;15.00;;;;;;;9.20;89.35;99378.75;5071936;28;20135;-42
2023/04/04 00:44:05;;;;;;;25.35;16.38;;;;;;;9.20;89.24;99371.81;5057786;28;20048;-43
2023/04/04 00:46:31;;;;;;;26.65;17.83;;;;;;;9.22;89.25;99370.00;5090208;28;20066;-43
2023/04/04 00:48:58;;;;;;;24.40;15.93;;;;;;;9.10;89.18;99348.84;5067567;28;20131;-44
2023/04/04 00:51:24;;;;;;;25.17;14.80;;;;;;;9.13;89.22;99346.97;5036061;28;20076;-43
2023/04/04 00:53:51;;;;;;;29.48;16.33;;;;;;;9.29;88.61;99371.50;5039748;28;20522;-44
2023/04/04 00:56:17;;;;;;;24.95;14.85;;;;;;;9.26;88.49;99365.59;5036899;28;20040;-43
2023/04/04 00:58:43;;;;;;;19.85;11.63;;;;;;;9.32;88.79;99365.34;5072331;28;20089;-42
2023/04/04 01:01:10;;;;;;;19.95;10.55;;;;;;;9.31;88.37;99363.69;5070485;28;20056;-44
2023/04/04 01:03:36;;;;;;;17.30;9.90;;;;;;;9.31;88.03;99369.72;5059187;28;20400;-42
2023/04/04 01:06:02;;;;;;;17.88;10.35;;;;;;;9.32;88.10;99370.53;5071238;28;20046;-41
2023/04/04 01:08:29;;;;;;;26.27;16.25;;;;;;;9.13;87.76;99339.19;5085712;28;20040;-43
2023/04/04 01:10:55;;;;;;;28.33;16.13;;;;;;;9.22;87.92;99351.84;5077343;28;20470;-43
2023/04/04 01:13:22;;;;;;;24.10;13.63;;;;;;;9.25;87.43;99364.72;5060521;28;20039;-42
2023/04/04 01:15:49;;;;;;;21.90;12.98;;;;;;;9.15;87.41;99350.38;5056195;28;20068;-42
2023/04/04 01:18:19;;;;;;;21.25;11.60;;;;;;;9.21;87.78;99363.13;5082200;28;20044;-42
2023/04/04 01:21:02;;;;;;;20.52;11.38;;;;;;;9.15;87.60;99355.56;5072774;28;20093;-42
2023/04/04 01:23:49;;;;;;;25.25;12.88;;;;;;;9.15;87.79;99350.38;5084653;28;20081;-41
2023/04/04 01:26:15;;;;;;;21.30;11.32;;;;;;;9.11;87.52;99355.69;5082811;28;20511;-42
2023/04/04 01:28:42;;;;;;;23.75;13.02;;;;;;;9.09;87.76;99352.31;5088619;28;20040;-42
2023/04/04 01:31:13;;;;;;;25.10;14.07;;;;;;;9.04;88.04;99362.84;5073444;28;20102;-42
2023/04/04 01:33:45;;;;;;;24.58;14.82;;;;;;;8.97;87.99;99350.13;5058040;28;20047;-42
2023/04/04 01:36:20;;;;;;;27.95;17.30;;;;;;;8.96;88.04;99354.47;5054339;28;20112;-42
2023/04/04 01:39:16;;;;;;;31.15;17.80;;;;;;;8.81;88.18;99336.81;5088281;28;20090;-42
2023/04/04 01:41:44;;;;;;;21.25;12.27;;;;;;;8.69;88.06;99322.53;5067424;28;20123;-42
2023/04/04 01:44:11;;;;;;;27.08;13.80;;;;;;;8.83;88.56;99351.44;5083042;28;20554;-42
2023/04/04 01:46:37;;;;;;;30.80;15.88;;;;;;;8.81;88.41;99353.22;5068960;28;20036;-41
2023/04/04 01:49:03;;;;;;;27.63;15.05;;;;;;;8.78;88.53;99349.91;5067617;28;20062;-42
2023/04/04 01:51:33;;;;;;;25.73;14.55;;;;;;;8.72;88.94;99356.13;5051216;28;20055;-42
2023/04/04 01:53:59;;;;;;;21.85;12.25;;;;;;;8.76;89.15;99356.88;5067670;28;20040;-42
2023/04/04 01:56:25;;;;;;;17.27;10.40;;;;;;;8.77;88.98;99359.41;5068697;28;20033;-42
2023/04/04 01:58:52;;;;;;;21.35;12.07;;;;;;;8.78;89.18;99355.94;5074497;28;20119;-42
2023/04/04 02:01:18;;;;;;;23.20;11.85;;;;;;;8.78;88.98;99355.94;5071015;28;20084;-41
2023/04/04 02:03:46;;;;;;;23.52;13.07;;;;;;;8.76;88.92;99356.88;5084556;28;20076;-42
2023/04/04 02:06:12;;;;;;;22.17;12.40;;;;;;;8.77;88.88;99356.81;5073559;28;20070;-41
2023/04/04 02:08:38;;;;;;;23.27;13.10;;;;;;;8.77;89.03;99359.41;5072442;28;20528;-41
2023/04/04 02:11:04;;;;;;;28.42;15.65;;;;;;;8.77;89.25;99358.56;5067443;28;20450;-42
2023/04/04 02:13:31;;;;;;;27.67;15.20;;;;;;;8.57;88.96;99335.03;5068624;28;20036;-42
2023/04/04 02:15:58;;;;;;;21.25;12.30;;;;;;;8.73;89.16;99360.41;5066997;28;20036;-41
2023/04/04 02:18:24;;;;;;;23.42;12.10;;;;;;;8.54;89.05;99327.34;5083854;28;20036;-42
2023/04/04 02:20:57;;;;;;;21.42;12.30;;;;;;;8.72;89.02;99360.47;5081443;28;20058;-42
2023/04/04 02:23:23;;;;;;;22.27;12.23;;;;;;;8.56;89.15;99328.16;5069793;28;20044;-42
2023/04/04 02:25:52;;;;;;;22.65;12.55;;;;;;;8.55;89.03;99339.41;5087242;28;20042;-42
2023/04/04 02:28:18;;;;;;;20.95;11.00;;;;;;;8.70;89.40;99360.50;5086467;28;20090;-42
2023/04/04 02:30:44;;;;;;;19.27;11.13;;;;;;;8.73;89.11;99360.41;5079958;28;20051;-42
2023/04/04 02:33:10;;;;;;;20.38;10.50;;;;;;;8.75;89.18;99358.59;5068420;28;20036;-41
2023/04/04 02:35:37;;;;;;;23.17;11.73;;;;;;;8.76;89.19;99352.53;5065591;28;20455;-42
2023/04/04 02:38:02;;;;;;;20.55;11.63;;;;;;;8.76;88.84;99352.53;5066187;28;20516;-43
2023/04/04 02:40:40;;;;;;;19.55;11.50;;;;;;;8.73;88.74;99354.38;5070738;28;20044;-42
2023/04/04 02:43:06;;;;;;;20.35;11.05;;;;;;;8.74;88.87;99361.28;5066123;28;20067;-43
2023/04/04 02:45:33;;;;;;;21.83;11.82;;;;;;;8.72;89.11;99356.13;5050143;28;20504;-42
2023/04/04 02:48:07;;;;;;;21.70;11.13;;;;;;;8.72;88.92;99353.53;5049989;28;20057;-44
2023/04/04 02:50:39;;;;;;;22.58;11.35;;;;;;;8.71;88.95;99351.84;5066304;28;20127;-42
2023/04/04 02:53:07;;;;;;;18.05;10.57;;;;;;;8.71;88.86;99354.44;5068104;28;20031;-41
2023/04/04 02:55:35;;;;;;;20.92;11.10;;;;;;;8.74;88.87;99354.31;5087071;28;20048;-42
2023/04/04 02:58:01;;;;;;;20.42;12.15;;;;;;;8.72;88.62;99345.75;5068805;28;20044;-45
2023/04/04 03:00:27;;;;;;;23.77;12.07;;;;;;;8.77;88.57;99355.97;5053378;28;20048;-42
2023/04/04 03:02:54;;;;;;;21.65;11.98;;;;;;;8.79;88.63;99364.56;5088155;28;20554;-42
2023/04/04 03:05:23;;;;;;;;;;;;;;;8.78;88.42;99355.94;5085311;28;20420;-43
2023/04/04 03:07:56;;;;;;;24.52;13.43;;;;;;;8.76;88.45;99354.28;5083388;28;19924;-44
2023/04/04 03:10:23;;;;;;;25.35;14.88;;;;;;;8.78;87.94;99349.91;5080085;28;20566;-42
2023/04/04 03:12:50;;;;;;;28.83;14.93;;;;;;;8.79;88.05;99356.78;5069977;28;20044;-42
2023/04/04 03:15:16;;;;;;;32.58;16.70;;;;;;;8.79;88.01;99349.81;5068794;28;20121;-42
2023/04/04 03:17:43;;;;;;;30.80;17.65;;;;;;;8.67;87.74;99337.28;5087958;28;20062;-41
2023/04/04 03:20:11;;;;;;;28.73;15.68;;;;;;;8.81;87.92;99350.63;5053243;28;20532;-42
2023/04/04 03:22:37;;;;;;;24.95;13.07;;;;;;;8.83;88.03;99359.22;5069617;28;20044;-41
2023/04/04 03:25:03;;;;;;;21.88;12.73;;;;;;;8.84;87.80;99352.28;5086795;28;20039;-44
2023/04/04 03:27:33;;;;;;;22.52;12.48;;;;;;;8.84;87.76;99358.34;5087951;28;20423;-44
2023/04/04 03:29:59;;;;;;;23.48;12.63;;;;;;;8.85;87.67;99360.00;5061057;28;20478;-41
2023/04/04 03:32:29;;;;;;;23.73;12.48;;;;;;;8.87;87.54;99362.56;5050458;28;20044;-43
2023/04/04 03:34:55;;;;;;;23.88;13.68;;;;;;;8.87;87.43;99359.97;5078499;28;20123;-43
2023/04/04 03:37:21;;;;;;;21.20;13.10;;;;;;;8.92;87.60;99369.28;5073167;28;20043;-42
2023/04/04 03:39:48;;;;;;;27.80;14.77;;;;;;;8.81;87.69;99345.44;5065972;28;20573;-43
2023/04/04 03:42:14;;;;;;;26.65;15.30;;;;;;;9.03;87.52;99368.94;5049571;28;20057;-42
2023/04/04 03:44:40;;;;;;;26.00;15.93;;;;;;;9.06;87.40;99363.63;5074236;28;20044;-42
2023/04/04 03:47:09;;;;;;;30.40;15.80;;;;;;;9.07;87.42;99362.75;5061184;28;20086;-42
2023/04/04 03:49:35;;;;;;;25.98;15.57;;;;;;;9.08;86.92;99372.22;5069952;28;20049;-41
2023/04/04 03:52:02;;;;;;;22.70;13.85;;;;;;;8.95;87.22;99341.56;5069443;28;20079;-41
2023/04/04 03:54:28;;;;;;;20.08;13.15;;;;;;;9.13;86.94;99372.06;5035929;28;20068;-41
2023/04/04 03:56:55;;;;;;;17.92;11.13;;;;;;;9.04;86.88;99354.22;5081685;28;20064;-42
2023/04/04 03:59:22;;;;;;;16.73;10.68;;;;;;;9.16;86.28;99374.56;5069334;28;20044;-42
2023/04/04 04:01:48;;;;;;;14.82;9.63;;;;;;;9.17;86.28;99373.66;5052848;28;20048;-42
2023/04/04 04:04:13;;;;;;;23.30;12.80;;;;;;;9.18;86.43;99371.00;5070665;28;20047;-43
2023/04/04 04:06:40;;;;;;;23.23;12.93;;;;;;;9.20;85.60;99374.41;5052413;28;20032;-43
2023/04/04 04:09:06;;;;;;;27.48;17.02;;;;;;;9.21;85.42;99373.50;5069053;28;20059;-42
2023/04/04 04:11:33;;;;;;;25.60;16.90;;;;;;;9.25;85.75;99371.66;5070950;28;20043;-42
2023/04/04 04:14:02;;;;;;;23.52;16.38;;;;;;;9.26;85.18;99369.00;5090448;28;20039;-42
2023/04/04 04:16:29;;;;;;;27.35;17.33;;;;;;;9.27;85.20;99372.44;5086953;28;20134;-42
2023/04/04 04:18:57;;;;;;;28.27;18.73;;;;;;;9.30;84.91;99375.78;5088210;28;20128;-42
2023/04/04 04:21:33;;;;;;;29.92;19.77;;;;;;;9.23;84.65;99353.53;5087635;28;20063;-41
2023/04/04 04:23:59;;;;;;;29.48;19.25;;;;;;;9.29;84.87;99358.53;5052065;28;20041;-42
2023/04/04 04:26:26;;;;;;;31.95;21.48;;;;;;;9.43;84.44;99373.59;5089098;28;20036;-43
2023/04/04 04:28:52;;;;;;;31.83;20.80;;;;;;;9.45;84.19;99369.22;5070948;28;20044;-44
2023/04/04 04:31:26;;;;;;;24.95;15.32;;;;;;;9.44;84.13;99364.94;5072204;28;20127;-44
2023/04/04 04:33:52;;;;;;;25.83;15.93;;;;;;;9.49;84.16;99363.03;5088700;28;20111;-44
2023/04/04 04:36:22;;;;;;;24.50;14.98;;;;;;;9.49;83.59;99373.41;5089183;28;20075;-44
2023/04/04 04:38:56;;;;;;;24.00;14.02;;;;;;;9.55;83.92;99378.38;5077569;28;20074;-44
2023/04/04 04:41:28;;;;;;;19.42;12.85;;;;;;;9.58;83.85;99375.66;5088233;28;20055;-41
2023/04/04 04:43:54;;;;;;;18.05;12.18;;;;;;;9.57;83.27;99371.41;5085987;28;20080;-43
2023/04/04 04:46:24;;;;;;;20.35;13.48;;;;;;;9.62;83.45;99376.44;5088166;28;20043;-43
2023/04/04 04:48:50;;;;;;;20.88;14.07;;;;;;;9.58;83.02;99352.31;5070936;28;20043;-41
2023/04/04 04:51:22;;;;;;;20.70;12.73;;;;;;;9.70;82.46;99366.59;5103325;28;20055;-44
2023/04/04 04:53:51;;;;;;;22.08;12.80;;;;;;;9.78;82.55;99370.63;5071282;28;20067;-42
2023/04/04 04:56:18;;;;;;;19.95;13.90;;;;;;;9.83;82.21;99374.81;5087930;28;20119;-42
2023/04/04 04:58:47;;;;;;;22.27;13.52;;;;;;;9.89;81.96;99378.00;5081544;28;20040;-52
2023/04/04 05:01:20;;;;;;;17.40;11.40;;;;;;;9.92;81.93;99371.88;5070799;28;20127;-43
2023/04/04 05:03:46;;;;;;;16.30;11.32;;;;;;;9.94;81.53;99378.72;5071405;28;20036;-43
2023/04/04 05:06:17;;;;;;;18.15;11.05;;;;;;;9.99;80.97;99365.56;5087147;28;20043;-42
2023/04/04 05:08:43;;;;;;;18.13;11.43;;;;;;;10.10;80.33;99361.63;5073590;28;20109;-42
2023/04/04 05:11:31;;;;;;;17.90;12.23;;;;;;;10.22;79.33;99362.13;5081602;28;20040;-43
2023/04/04 05:13:59;;;;;;;17.90;11.52;;;;;;;10.29;79.31;99335.00;5087574;28;20047;-44
2023/04/04 05:16:27;;;;;;;19.88;11.85;;;;;;;10.53;78.07;99331.44;5070631;28;20135;-43
2023/04/04 05:18:56;;;;;;;22.67;14.52;;;;;;;10.82;77.37;99351.06;5070927;28;20044;-43
2023/04/04 05:21:22;;;;;;;23.35;15.50;;;;;;;10.90;76.81;99347.25;5053317;28;20057;-43
2023/04/04 05:23:51;;;;;;;20.98;12.40;;;;;;;10.89;76.54;99342.94;5073810;28;20062;-42
2023/04/04 05:26:19;;;;;;;16.23;10.20;;;;;;;10.99;75.91;99340.84;5052491;28;20147;-43
2023/04/04 05:28:49;;;;;;;20.50;13.10;;;;;;;11.08;75.87;99339.59;5087086;28;20427;-43
2023/04/04 05:31:15;;;;;;;19.83;13.00;;;;;;;11.20;75.15;99347.72;5087477;28;20679;-43
2023/04/04 05:33:41;;;;;;;19.15;11.68;;;;;;;11.31;74.89;99340.31;5088983;28;20042;-43
2023/04/04 05:36:12;;;;;;;20.23;12.77;;;;;;;11.44;73.68;99345.84;5080719;28;20037;-42
2023/04/04 05:38:50;;;;;;;17.73;12.13;;;;;;;11.61;73.40;99353.78;5071604;28;20063;-43
2023/04/04 05:41:18;;;;;;;19.55;12.27;;;;;;;11.83;72.25;99356.28;5051070;28;20040;-42
2023/04/04 05:43:46;;;;;;;17.65;11.85;;;;;;;12.04;71.32;99357.06;5076490;28;20114;-43
2023/04/04 05:46:15;;;;;;;;;;;;;;;12.26;70.66;99358.63;5079895;28;20064;-43
2023/04/04 05:48:46;;;;;;;21.08;11.88;;;;;;;12.37;70.36;99358.13;5099666;28;20406;-42
2023/04/04 05:51:12;;;;;;;14.02;10.07;;;;;;;12.54;69.45;99355.59;5070532;28;20075;-42
2023/04/04 05:53:46;;;;;;;12.50;8.48;;;;;;;12.57;68.97;99357.19;5078962;28;20512;-46
2023/04/04 05:56:17;;;;;;;10.02;6.82;;;;;;;12.59;68.51;99355.38;5074124;28;20658;-43
2023/04/04 05:58:45;;;;;;;11.18;7.28;;;;;;;12.56;67.44;99353.72;5056763;28;20036;-42
2023/04/04 06:01:13;;;;;;;11.82;7.57;;;;;;;12.42;67.17;99318.81;5076986;28;20093;-42
2023/04/04 06:03:40;;;;;;;12.52;6.88;;;;;;;12.72;66.62;99353.84;5072876;28;20051;-42
2023/04/04 06:06:11;;;;;;;12.70;9.50;;;;;;;12.84;66.26;99349.81;5065121;28;20040;-44
2023/04/04 06:08:36;;;;;;;10.88;7.10;;;;;;;13.16;65.46;99349.09;5053414;28;20041;-44
2023/04/04 06:11:02;;;;;;;8.95;7.32;;;;;;;13.48;64.50;99344.84;5093162;28;20055;-43
2023/04/04 06:13:28;;;;;;;11.25;6.65;;;;;;;13.78;63.55;99342.41;5077934;28;20086;-45
2023/04/04 06:16:00;;;;;;;12.55;7.90;;;;;;;14.08;62.77;99350.41;5089452;28;20054;-44
2023/04/04 06:18:26;;;;;;;9.32;6.75;;;;;;;14.17;62.02;99321.13;5074186;28;20033;-41
2023/04/04 06:20:53;;;;;;;11.48;7.22;;;;;;;14.76;61.23;99346.59;5064961;28;20050;-42
2023/04/04 06:23:18;;;;;;;9.55;7.10;;;;;;;15.22;59.92;99348.25;5073407;28;20040;-43
2023/04/04 06:25:48;;;;;;;9.13;6.75;;;;;;;16.17;58.00;99346.00;5058597;28;20381;-43
2023/04/04 06:28:16;;;;;;;11.38;6.68;;;;;;;17.00;55.85;99352.91;5081507;28;20130;-42
2023/04/04 06:30:45;;;;;;;13.30;7.07;;;;;;;17.55;54.03;99343.94;5065687;28;20054;-45
2023/04/04 06:33:14;;;;;;;9.60;6.78;;;;;;;17.84;53.08;99355.97;5068685;28;20127;-42
2023/04/04 06:35:44;;;;;;;8.63;6.70;;;;;;;17.97;52.22;99353.31;5083446;28;20031;-43
2023/04/04 06:38:12;;;;;;;9.45;7.18;;;;;;;17.89;51.80;99358.28;5076713;28;20560;-44
2023/04/04 06:40:38;;;;;;;12.57;7.78;;;;;;;18.26;50.79;99353.91;5094274;28;20085;-42
2023/04/04 06:43:04;;;;;;;10.63;7.10;;;;;;;18.29;49.71;99354.53;5054021;28;20146;-42
2023/04/04 06:45:36;;;;;;;12.20;7.72;;;;;;;18.01;49.59;99347.72;5098559;28;20098;-42
2023/04/04 06:48:02;;;;;;;8.48;6.80;;;;;;;17.69;49.83;99357.84;5075962;28;20686;-46
2023/04/04 06:50:31;;;;;;;10.32;7.40;;;;;;;18.08;49.16;99356.88;5068363;28;20479;-43
2023/04/04 06:53:00;;;;;;;8.10;6.68;;;;;;;19.16;47.70;99359.53;5074281;28;20159;-44
2023/04/04 06:55:28;;;;;;;10.60;6.90;;;;;;;19.46;46.61;99353.81;5082443;28;20127;-44
2023/04/04 06:57:54;;;;;;;11.93;7.13;;;;;;;19.54;45.97;99361.97;5076699;28;20040;-47
2023/04/04 07:00:20;;;;;;;11.55;7.38;;;;;;;19.45;45.55;99349.50;5079656;28;20036;-44
2023/04/04 07:02:46;;;;;;;12.75;7.70;;;;;;;19.46;45.46;99364.38;5076437;28;20090;-43
2023/04/04 07:05:13;;;;;;;10.98;7.22;;;;;;;19.75;44.87;99352.41;5059368;28;20450;-45
2023/04/04 07:07:39;;;;;;;11.15;7.18;;;;;;;20.57;43.58;99356.47;5099978;28;20043;-50
2023/04/04 07:10:05;;;;;;;15.38;7.30;;;;;;;21.34;42.39;99354.53;5080481;28;20128;-44
2023/04/04 07:12:32;;;;;;;9.35;8.35;;;;;;;22.50;40.62;99357.75;5086304;28;20157;-45
2023/04/04 07:14:57;;;;;;;11.68;7.40;;;;;;;23.91;38.19;99326.16;5083258;28;20044;-43
2023/04/04 07:17:24;;;;;;;11.75;7.20;;;;;;;24.59;37.21;99362.06;5072309;28;20036;-44
2023/04/04 07:19:50;;;;;;;14.50;7.97;;;;;;;24.81;36.44;99358.94;5076353;28;20036;-43
2023/04/04 07:22:15;;;;;;;14.65;8.32;;;;;;;25.36;35.52;99361.47;5084780;28;20191;-45
2023/04/04 07:24:41;;;;;;;12.68;7.53;;;;;;;26.07;33.84;99339.97;5075994;28;20048;-45
2023/04/04 07:27:07;;;;;;;14.55;7.40;;;;;;;25.73;33.86;99354.13;5056704;28;20492;-43
2023/04/04 07:29:33;;;;;;;10.07;7.05;;;;;;;25.06;34.47;99359.22;5075865;28;20040;-46
2023/04/04 07:31:59;;;;;;;11.20;7.07;;;;;;;24.30;35.14;99358.69;5073767;28;20185;-46
2023/04/04 07:34:25;;;;;;;9.27;6.95;;;;;;;23.16;35.89;99332.28;5078529;28;20053;-44
2023/04/04 07:36:52;;;;;;;18.55;9.20;;;;;;;22.40;37.02;99365.66;5082619;28;20035;-46
2023/04/04 07:39:18;;;;;;;12.48;7.97;;;;;;;21.58;38.13;99353.41;5074207;28;20074;-46
2023/04/04 07:41:44;;;;;;;14.75;8.27;;;;;;;20.97;38.88;99355.88;5094332;28;20051;-46
2023/04/04 07:44:10;;;;;;;13.80;8.85;;;;;;;20.87;39.30;99362.88;5080578;28;20084;-46
2023/04/04 07:46:37;;;;;;;13.90;8.98;;;;;;;20.67;39.65;99370.59;5074739;28;20086;-44
2023/04/04 07:49:06;;;;;;;13.82;10.50;;;;;;;20.27;40.60;99364.16;5077982;28;20052;-45
2023/04/04 07:51:34;;;;;;;15.55;10.40;;;;;;;19.79;41.39;99366.19;5081588;28;20036;-48
2023/04/04 07:54:01;;;;;;;17.75;10.95;;;;;;;19.23;42.33;99350.25;5076363;28;20040;-44
2023/04/04 07:56:27;;;;;;;17.42;10.77;;;;;;;18.98;42.86;99363.56;5074201;28;20039;-43
2023/04/04 07:58:53;;;;;;;16.80;9.80;;;;;;;18.74;43.54;99357.44;5066502;28;20045;-43
2023/04/04 08:01:19;;;;;;;17.02;9.82;;;;;;;18.63;43.91;99355.63;5061820;28;20058;-45
2023/04/04 08:03:45;;;;;;;18.10;9.18;;;;;;;18.61;44.19;99347.81;5064069;28;20754;-44
2023/04/04 08:06:11;;;;;;;15.35;9.32;;;;;;;18.51;44.22;99353.84;5068460;28;20044;-44
2023/04/04 08:08:37;;;;;;;13.57;8.57;;;;;;;18.46;44.62;99355.97;5061874;28;20052;-44
2023/04/04 08:11:03;;;;;;;11.57;7.70;;;;;;;18.14;44.28;99308.25;5074074;28;20213;-43
2023/04/04 08:13:29;;;;;;;10.52;7.63;;;;;;;18.30;44.32;99360.63;5078232;28;20130;-45
2023/04/04 08:15:55;;;;;;;13.95;8.10;;;;;;;18.17;44.52;99352.75;5084558;28;20035;-46
2023/04/04 08:18:21;;;;;;;16.08;9.93;;;;;;;18.15;44.71;99354.66;5060988;28;20556;-44
2023/04/04 08:20:47;;;;;;;14.57;8.48;;;;;;;18.19;44.79;99366.66;5069118;28;20117;-44
2023/04/04 08:23:13;;;;;;;12.82;8.52;;;;;;;17.93;45.27;99341.34;5082588;28;20044;-43
2023/04/04 08:25:39;;;;;;;14.75;7.72;;;;;;;17.81;45.05;99343.03;5064250;28;20047;-42
2023/04/04 08:28:04;;;;;;;13.88;7.93;;;;;;;17.89;45.50;99364.38;5076290;28;20506;-45
2023/04/04 08:30:30;;;;;;;14.93;8.88;;;;;;;17.89;45.72;99356.50;5067777;28;20060;-43
2023/04/04 08:32:56;;;;;;;15.65;7.88;;;;;;;18.15;45.52;99352.88;5069997;28;20056;-44
2023/04/04 08:35:22;;;;;;;18.05;10.45;;;;;;;18.39;44.96;99344.19;5080302;28;20032;-44
2023/04/04 08:37:48;;;;;;;15.60;8.95;;;;;;;18.63;44.30;99352.16;5066754;28;20142;-43
2023/04/04 08:40:15;;;;;;;14.57;8.50;;;;;;;18.80;44.07;99352.56;5080297;28;20051;-43
2023/04/04 08:42:44;;;;;;;16.67;8.43;;;;;;;19.09;43.93;99357.50;5071603;28;20057;-45
2023/04/04 08:45:11;;;;;;;13.70;7.55;;;;;;;19.46;43.43;99353.81;5079944;28;20032;-43
2023/04/04 08:47:38;;;;;;;15.27;7.55;;;;;;;20.14;42.51;99356.41;5081343;28;20039;-44
2023/04/04 08:50:05;;;;;;;16.40;8.15;;;;;;;21.12;40.98;99365.19;5073975;28;20048;-42
2023/04/04 08:52:32;;;;;;;18.38;8.98;;;;;;;21.68;39.96;99359.59;5084641;28;20071;-46
2023/04/04 08:54:58;;;;;;;18.40;8.13;;;;;;;22.65;38.80;99367.81;5080319;28;20039;-43
2023/04/04 08:57:24;;;;;;;14.68;7.78;;;;;;;24.33;36.59;99361.91;5087104;28;20131;-45
2023/04/04 08:59:49;;;;;;;19.45;8.70;;;;;;;26.38;33.64;99357.13;5058182;28;20139;-42
2023/04/04 09:02:40;;;;;;;17.35;8.15;;;;;;;28.06;31.29;99369.91;5097591;28;20150;-45
2023/04/04 09:05:07;;;;;;;19.85;8.13;;;;;;;29.56;29.30;99348.16;5069706;28;20427;-46
2023/04/04 09:07:34;;;;;;;10.50;8.20;;;;;;;30.80;27.40;99369.69;5068771;28;20393;-44
2023/04/04 09:10:01;;;;;;;12.65;8.75;;;;;;;31.36;26.66;99355.41;5074312;28;20040;-45
2023/04/04 09:12:30;;;;;;;11.77;7.93;;;;;;;31.90;25.62;99374.47;5081579;28;20036;-44
2023/04/04 09:14:57;;;;;;;11.13;7.60;;;;;;;32.85;24.11;99375.56;5071032;28;20059;-44
2023/04/04 09:17:23;;;;;;;29.25;9.32;;;;;;;32.73;24.03;99375.31;5069431;28;20048;-44
2023/04/04 09:19:49;;;;;;;16.70;9.30;;;;;;;33.09;23.44;99372.28;5088170;28;20036;-45
2023/04/04 09:22:16;;;;;;;10.68;8.63;;;;;;;33.72;22.67;99370.09;5078280;28;20078;-45
2023/04/04 09:24:42;;;;;;;13.20;8.60;;;;;;;34.47;21.78;99363.28;5079386;28;20076;-45
2023/04/04 09:27:09;;;;;;;12.60;8.50;;;;;;;33.24;22.49;99377.56;5078452;28;20031;-44
2023/04/04 09:29:39;;;;;;;10.50;8.40;;;;;;;31.35;23.36;99358.31;5070194;28;20122;-44
2023/04/04 09:32:09;;;;;;;16.73;8.90;;;;;;;29.59;24.73;99348.63;5085460;28;20530;-45
2023/04/04 09:34:36;;;;;;;21.05;8.95;;;;;;;28.40;26.48;99342.09;5081552;28;20197;-47
2023/04/04 09:37:04;;;;;;;16.30;10.85;;;;;;;27.48;27.53;99340.78;5085160;28;20036;-43
2023/04/04 09:39:30;;;;;;;21.75;12.38;;;;;;;26.76;28.35;99365.56;5074432;28;20036;-42
2023/04/04 09:41:57;;;;;;;13.18;9.10;;;;;;;26.10;28.98;99361.00;5071352;28;20047;-45
2023/04/04 09:44:24;;;;;;;13.27;9.05;;;;;;;25.69;29.20;99366.09;5077882;28;20060;-45
2023/04/04 09:46:53;;;;;;;17.77;8.75;;;;;;;25.06;30.23;99365.38;5082552;28;20042;-43
2023/04/04 09:49:20;;;;;;;;;;;;;;;24.30;30.64;99372.81;5057381;28;20423;-41
2023/04/04 09:51:53;;;;;;;19.17;8.23;;;;;;;23.53;31.72;99369.56;5074651;28;20293;-42
2023/04/04 09:54:20;;;;;;;17.73;8.73;;;;;;;22.96;33.03;99367.75;5083170;28;20051;-44
2023/04/04 09:56:47;;;;;;;19.13;8.15;;;;;;;22.67;32.94;99347.31;5082979;28;20502;-43
2023/04/04 09:59:13;;;;;;;17.75;8.85;;;;;;;22.64;33.03;99363.50;5077578;28;20486;-41
2023/04/04 10:01:39;;;;;;;17.33;9.30;;;;;;;22.29;33.62;99332.19;5082090;28;20127;-42
2023/04/04 10:04:05;;;;;;;17.00;9.05;;;;;;;22.29;34.21;99361.31;5070249;28;20058;-42
2023/04/04 10:06:31;;;;;;;20.38;8.93;;;;;;;22.10;34.83;99361.22;5090117;28;20490;-41
2023/04/04 10:08:59;;;;;;;15.00;7.78;;;;;;;21.87;34.67;99360.56;5079096;28;20497;-41
2023/04/04 10:11:34;;;;;;;17.25;8.50;;;;;;;21.65;34.87;99366.00;5075003;28;20491;-42
2023/04/04 10:14:02;;;;;;;15.60;8.10;;;;;;;21.44;35.02;99373.94;5071550;28;20138;-43
2023/04/04 10:16:33;;;;;;;15.48;7.80;;;;;;;21.36;34.96;99363.16;5079784;28;20039;-42
2023/04/04 10:19:00;;;;;;;12.38;7.80;;;;;;;21.53;34.59;99362.59;5080662;28;20035;-41
2023/04/04 10:21:26;;;;;;;13.15;8.10;;;;;;;21.88;34.46;99364.84;5075269;28;20412;-39
2023/04/04 10:23:53;;;;;;;16.52;8.75;;;;;;;22.13;34.36;99366.28;5078221;28;20423;-39
2023/04/04 10:26:19;;;;;;;16.33;9.38;;;;;;;22.22;34.52;99369.94;5077008;28;20138;-39
2023/04/04 10:28:45;;;;;;;26.25;10.23;;;;;;;22.14;34.86;99365.28;5081413;28;20139;-40
2023/04/04 10:31:17;;;;;;;16.30;8.15;;;;;;;21.96;35.04;99370.38;5078608;28;20044;-42
2023/04/04 10:34:00;;;;;;;22.52;8.55;;;;;;;21.86;35.35;99377.41;5064597;28;20136;-41
2023/04/04 10:36:30;;;;;;;15.73;8.25;;;;;;;21.64;35.52;99374.91;5077165;28;20081;-41
2023/04/04 10:39:13;;;;;;;16.17;8.18;;;;;;;21.29;35.62;99348.78;5062601;28;20075;-41
2023/04/04 10:41:40;;;;;;;16.23;8.43;;;;;;;21.05;35.75;99378.06;5062749;28;20036;-39
2023/04/04 10:44:32;;;;;;;13.90;8.38;;;;;;;20.76;36.30;99376.13;5080196;28;20048;-40
2023/04/04 10:47:22;;;;;;;22.92;8.73;;;;;;;20.66;36.72;99374.22;5074849;28;20439;-41
2023/04/04 10:49:48;;;;;;;19.60;8.63;;;;;;;20.44;36.79;99350.50;5081734;28;20127;-40
2023/04/04 10:52:17;;;;;;;15.50;7.72;;;;;;;20.51;36.97;99380.75;5079711;28;20059;-41
2023/04/04 10:54:44;;;;;;;16.98;7.85;;;;;;;20.38;36.85;99363.34;5077817;28;20036;-40
2023/04/04 10:57:12;;;;;;;16.23;7.65;;;;;;;20.58;36.85;99381.91;5063884;28;20130;-38
2023/04/04 11:00:04;;;;;;;14.48;8.18;;;;;;;20.62;36.70;99385.16;5085396;28;20503;-40
2023/04/04 11:02:59;;;;;;;19.50;7.57;;;;;;;20.63;36.84;99376.25;5085335;28;20040;-39
2023/04/04 11:05:36;;;;;;;13.48;8.32;;;;;;;20.52;37.18;99377.13;5085089;28;20063;-40
2023/04/04 11:08:09;;;;;;;14.20;7.55;;;;;;;20.34;37.22;99378.59;5086887;28;20543;-40
2023/04/04 11:10:37;;;;;;;13.50;7.65;;;;;;;20.12;37.46;99371.50;5074039;28;20048;-40
2023/04/04 11:13:22;;;;;;;15.93;7.75;;;;;;;19.70;38.28;99378.31;5085784;27;20040;-39
2023/04/04 11:15:55;;;;;;;17.92;8.05;;;;;;;19.41;39.25;99380.50;5066469;28;20036;-42
2023/04/04 11:18:22;;;;;;;18.92;7.95;;;;;;;19.17;39.42;99376.22;5070362;28;20040;-41
2023/04/04 11:20:48;;;;;;;13.40;7.72;;;;;;;18.91;39.53;99375.50;5081925;28;20096;-39
2023/04/04 11:23:19;;;;;;;14.75;7.72;;;;;;;18.72;39.59;99370.75;5072751;28;20435;-39
2023/04/04 11:25:55;;;;;;;18.75;8.23;;;;;;;18.57;39.96;99375.34;5078173;28;20519;-40
2023/04/04 11:28:47;;;;;;;11.18;7.43;;;;;;;18.36;40.36;99371.56;5083518;28;20093;-41
2023/04/04 11:31:14;;;;;;;14.90;7.57;;;;;;;18.32;40.60;99374.53;5097575;28;20100;-39